Time;durP1;ratioP1;P1;durP2;ratioP2;P2;SDS_P1;SDS_P2;PMS_P1;PMS_P2;Temp;Humidity;BMP_temperature;BMP_pressure;BME280_temperature;BME280_humidity;BME280_pressure;Samples;Min_cycle;Max_cycle;Signal;HPM_P1;HPM_P2
2023/09/19 00:00:21;;;;;;;20.42;11.85;;;;;;;12.88;70.57;100350.00;5054860;28;20040;-63
2023/09/19 00:02:59;;;;;;;22.02;12.68;;;;;;;12.87;70.72;100347.44;5055536;28;20033;-62
2023/09/19 00:05:27;;;;;;;19.67;12.38;;;;;;;12.82;70.32;100347.81;5055365;28;20080;-61
2023/09/19 00:07:56;;;;;;;16.67;12.70;;;;;;;12.88;70.18;100349.16;5055272;28;20570;-63
2023/09/19 00:10:24;;;;;;;19.02;12.63;;;;;;;12.70;70.07;100330.88;5055689;28;20417;-62
2023/09/19 00:12:55;;;;;;;18.13;12.63;;;;;;;12.71;70.58;100337.94;5055217;28;20490;-64
2023/09/19 00:15:22;;;;;;;17.65;12.32;;;;;;;12.80;69.71;100351.63;5055126;28;20029;-61
2023/09/19 00:17:47;;;;;;;17.85;12.27;;;;;;;12.72;69.48;100334.28;5055034;28;20115;-64
2023/09/19 00:20:17;;;;;;;20.98;12.35;;;;;;;12.75;69.56;100352.84;5054456;28;20144;-62
2023/09/19 00:22:43;;;;;;;18.67;13.05;;;;;;;12.83;68.85;100346.00;5054273;28;20033;-61
2023/09/19 00:25:09;;;;;;;18.60;12.07;;;;;;;12.85;68.28;100346.72;5054712;28;20043;-63
2023/09/19 00:27:40;;;;;;;21.90;12.95;;;;;;;12.82;68.15;100347.81;5054818;28;20033;-62
2023/09/19 00:30:08;;;;;;;16.50;12.45;;;;;;;12.82;68.27;100346.97;5055067;28;20035;-62
2023/09/19 00:32:34;;;;;;;19.10;12.70;;;;;;;12.62;68.35;100310.00;5054581;28;20039;-61
2023/09/19 00:35:00;;;;;;;21.00;14.10;;;;;;;12.76;68.19;100345.63;5054784;28;20108;-62
2023/09/19 00:37:25;;;;;;;19.50;14.60;;;;;;;12.74;68.09;100351.13;5054821;28;20033;-63
2023/09/19 00:39:51;;;;;;;20.30;14.25;;;;;;;12.80;67.95;100348.94;5054948;28;20499;-62
2023/09/19 00:42:20;;;;;;;23.65;14.52;;;;;;;12.72;68.28;100342.34;5055122;28;20059;-63
2023/09/19 00:44:47;;;;;;;20.58;14.02;;;;;;;12.80;67.94;100341.72;5053498;28;20116;-61
2023/09/19 00:47:17;;;;;;;21.35;14.10;;;;;;;12.80;67.60;100340.88;5054515;28;20032;-62
2023/09/19 00:49:49;;;;;;;20.80;13.82;;;;;;;12.70;67.89;100328.19;5054576;28;20414;-62
2023/09/19 00:52:16;;;;;;;17.55;13.63;;;;;;;12.83;67.87;100348.69;5054490;28;20029;-61
2023/09/19 00:54:41;;;;;;;22.40;14.27;;;;;;;12.90;67.33;100349.88;5054309;28;20065;-65
2023/09/19 00:57:07;;;;;;;20.23;13.82;;;;;;;12.87;67.57;100350.13;5054151;28;20071;-62
2023/09/19 00:59:35;;;;;;;19.48;13.57;;;;;;;12.88;67.55;100343.78;5054493;28;20440;-63
2023/09/19 01:02:02;;;;;;;18.30;13.77;;;;;;;12.90;67.40;100349.88;5053885;28;20033;-61
2023/09/19 01:04:30;;;;;;;17.30;12.80;;;;;;;12.87;67.69;100347.44;5054068;28;20098;-61
2023/09/19 01:06:57;;;;;;;19.77;13.57;;;;;;;12.87;67.45;100342.91;5053963;28;20055;-62
2023/09/19 01:09:23;;;;;;;21.85;14.35;;;;;;;12.91;66.94;100338.16;5053144;28;20033;-61
2023/09/19 01:11:53;;;;;;;21.27;13.70;;;;;;;12.94;67.40;100345.94;5054017;28;20406;-61
2023/09/19 01:14:28;;;;;;;16.83;13.45;;;;;;;12.95;67.50;100347.66;5053649;28;20132;-60
2023/09/19 01:17:03;;;;;;;18.57;13.77;;;;;;;12.99;67.24;100346.41;5054210;28;20041;-64
2023/09/19 01:19:44;;;;;;;19.40;14.30;;;;;;;12.92;66.68;100343.41;5052840;28;20025;-61
2023/09/19 01:22:45;;;;;;;18.30;14.20;;;;;;;13.04;66.81;100346.91;5053792;28;20044;-60
2023/09/19 01:25:33;;;;;;;25.85;15.27;;;;;;;12.96;66.50;100343.16;5031818;28;20463;-61
2023/09/19 01:28:26;;;;;;;21.15;15.02;;;;;;;13.00;66.62;100336.53;5053467;28;20025;-63
2023/09/19 01:30:58;;;;;;;23.15;15.10;;;;;;;12.82;66.36;100338.91;5053885;28;20432;-61
2023/09/19 01:33:25;;;;;;;22.90;15.50;;;;;;;12.75;66.98;100339.41;5053216;28;20021;-62
2023/09/19 01:35:52;;;;;;;20.60;14.73;;;;;;;12.55;66.78;100311.47;5053561;28;20028;-62
2023/09/19 01:38:19;;;;;;;17.58;15.05;;;;;;;12.71;66.88;100340.63;5053625;28;20108;-61
2023/09/19 01:41:05;;;;;;;18.50;14.88;;;;;;;12.75;67.25;100342.09;5052546;28;20044;-61
2023/09/19 01:43:33;;;;;;;;;;;;;;;13.04;66.56;100340.69;5053567;28;20439;-60
2023/09/19 01:46:29;;;;;;;21.00;14.45;;;;;;;12.95;66.23;100342.28;5053417;28;19913;-62
2023/09/19 01:49:09;;;;;;;24.63;15.50;;;;;;;12.86;66.46;100326.94;5053289;28;20037;-60
2023/09/19 01:51:58;;;;;;;22.77;15.90;;;;;;;12.94;66.04;100319.09;5053570;28;20060;-62
2023/09/19 01:54:32;;;;;;;20.45;15.15;;;;;;;12.90;66.18;100331.94;5045727;28;20071;-61
2023/09/19 01:57:09;;;;;;;23.40;16.58;;;;;;;12.76;66.61;100324.16;5053720;28;20383;-61
2023/09/19 01:59:43;;;;;;;20.77;16.23;;;;;;;12.79;66.59;100331.94;5053054;28;20041;-62
2023/09/19 02:02:09;;;;;;;22.85;16.13;;;;;;;12.68;67.03;100323.94;5053121;28;20098;-61
2023/09/19 02:04:34;;;;;;;19.95;16.25;;;;;;;12.68;67.03;100318.56;5053031;28;20028;-60
2023/09/19 02:07:01;;;;;;;20.60;16.02;;;;;;;12.60;67.46;100309.28;5053341;28;20447;-62
2023/09/19 02:09:27;;;;;;;21.38;15.23;;;;;;;12.54;67.68;100314.28;5053033;28;20028;-61
2023/09/19 02:11:52;;;;;;;25.75;15.80;;;;;;;12.44;67.95;100312.34;5052723;28;20041;-61
2023/09/19 02:14:19;;;;;;;22.23;15.70;;;;;;;12.33;68.26;100307.84;5052924;28;20110;-60
2023/09/19 02:16:45;;;;;;;21.05;16.60;;;;;;;12.28;68.98;100306.50;5053263;28;20460;-61
2023/09/19 02:19:11;;;;;;;21.75;16.50;;;;;;;12.23;69.22;100311.38;5052777;28;20028;-56
2023/09/19 02:21:39;;;;;;;22.35;16.25;;;;;;;12.18;69.29;100303.72;5052067;28;20032;-61
2023/09/19 02:24:05;;;;;;;24.70;16.38;;;;;;;12.11;69.67;100306.03;5052562;28;20359;-62
2023/09/19 02:26:31;;;;;;;21.00;15.73;;;;;;;12.02;69.81;100290.66;5053155;28;20055;-62
2023/09/19 02:28:56;;;;;;;21.25;16.08;;;;;;;11.81;70.16;100264.50;5052679;28;20037;-60
2023/09/19 02:31:22;;;;;;;23.63;16.05;;;;;;;11.94;70.53;100296.63;5052631;28;20040;-61
2023/09/19 02:33:47;;;;;;;19.77;14.23;;;;;;;11.91;70.59;100302.19;5052503;28;20436;-60
2023/09/19 02:36:16;;;;;;;20.77;15.93;;;;;;;11.87;70.74;100280.16;5053102;28;20029;-59
2023/09/19 02:38:42;;;;;;;20.42;15.73;;;;;;;11.89;70.60;100298.78;5052818;28;20029;-59
2023/09/19 02:41:08;;;;;;;19.80;14.93;;;;;;;11.60;70.99;100262.56;5052595;28;20363;-62
2023/09/19 02:43:33;;;;;;;20.70;15.63;;;;;;;11.74;71.48;100292.78;5052530;28;20029;-60
2023/09/19 02:45:59;;;;;;;23.67;15.50;;;;;;;11.70;71.43;100283.28;5052590;28;20029;-62
2023/09/19 02:48:25;;;;;;;22.02;14.82;;;;;;;11.72;71.41;100294.75;5052323;28;20459;-63
2023/09/19 02:50:51;;;;;;;17.83;14.30;;;;;;;11.70;71.48;100294.00;5052249;28;20064;-62
2023/09/19 02:53:16;;;;;;;21.60;15.07;;;;;;;11.63;71.62;100302.53;5052231;28;20436;-62
2023/09/19 02:55:42;;;;;;;21.95;15.02;;;;;;;11.59;71.96;100287.69;5052178;28;20029;-61
2023/09/19 02:58:10;;;;;;;21.55;15.02;;;;;;;11.59;71.85;100290.34;5052752;28;20045;-62
2023/09/19 03:00:36;;;;;;;19.27;15.25;;;;;;;11.65;72.19;100293.53;5052119;28;20025;-62
2023/09/19 03:03:02;;;;;;;24.02;16.05;;;;;;;11.59;72.42;100285.00;5052020;28;20368;-61
2023/09/19 03:05:30;;;;;;;19.10;15.30;;;;;;;11.65;72.13;100298.88;5052330;28;20029;-61
2023/09/19 03:07:56;;;;;;;21.73;15.38;;;;;;;11.61;72.57;100293.78;5051991;28;20103;-62
2023/09/19 03:10:22;;;;;;;25.10;15.55;;;;;;;11.59;72.64;100295.72;5051985;28;20462;-60
2023/09/19 03:12:49;;;;;;;21.98;15.85;;;;;;;11.66;72.86;100300.59;5052086;28;20456;-61
2023/09/19 03:15:15;;;;;;;23.02;15.90;;;;;;;11.73;72.75;100299.13;5052057;28;20063;-59
2023/09/19 03:17:47;;;;;;;21.85;16.45;;;;;;;11.84;72.42;100312.59;5052349;28;20041;-60
2023/09/19 03:20:13;;;;;;;24.23;15.90;;;;;;;11.83;72.47;100307.31;5052318;28;20392;-61
2023/09/19 03:22:40;;;;;;;27.30;16.70;;;;;;;11.90;71.84;100304.03;5051977;28;20025;-62
2023/09/19 03:25:07;;;;;;;22.52;16.60;;;;;;;11.96;72.22;100304.53;5052215;28;20475;-62
2023/09/19 03:27:36;;;;;;;22.77;15.95;;;;;;;12.08;71.51;100311.66;5052177;28;20043;-61
2023/09/19 03:30:06;;;;;;;23.48;15.80;;;;;;;12.18;70.79;100309.94;5051704;28;20037;-62
2023/09/19 03:32:32;;;;;;;21.17;15.40;;;;;;;12.18;70.91;100301.88;5052638;28;20029;-61
2023/09/19 03:34:58;;;;;;;23.92;15.38;;;;;;;12.23;70.47;100316.75;5056167;28;20440;-62
2023/09/19 03:37:23;;;;;;;21.85;16.73;;;;;;;12.25;70.34;100301.38;5055566;28;20033;-62
2023/09/19 03:39:48;;;;;;;22.48;15.00;;;;;;;12.22;70.73;100304.31;5055710;28;20124;-62
2023/09/19 03:42:14;;;;;;;22.50;15.95;;;;;;;12.22;70.57;100302.50;5056136;28;20435;-62
2023/09/19 03:44:39;;;;;;;21.10;15.43;;;;;;;12.18;70.71;100296.50;5055736;28;20090;-61
2023/09/19 03:47:06;;;;;;;24.05;16.10;;;;;;;12.12;71.00;100291.63;5055536;28;20620;-62
2023/09/19 03:49:32;;;;;;;20.40;15.20;;;;;;;12.26;70.71;100306.66;5055379;28;20037;-62
2023/09/19 03:51:57;;;;;;;26.25;16.40;;;;;;;12.31;70.66;100300.91;5054793;28;20044;-61
2023/09/19 03:54:23;;;;;;;20.88;15.75;;;;;;;12.39;70.55;100292.22;5055678;28;20021;-62
2023/09/19 03:56:48;;;;;;;22.35;16.05;;;;;;;12.47;70.20;100303.22;5055548;28;20025;-61
2023/09/19 03:59:14;;;;;;;22.67;16.67;;;;;;;12.48;69.67;100303.06;5055345;28;20041;-60
2023/09/19 04:01:41;;;;;;;25.38;17.70;;;;;;;12.54;69.59;100295.47;5055940;28;20439;-61
2023/09/19 04:04:09;;;;;;;24.70;17.80;;;;;;;12.51;69.89;100298.41;5055567;28;21043;-61
2023/09/19 04:06:36;;;;;;;26.27;19.13;;;;;;;12.49;69.79;100291.34;5054970;28;20029;-61
2023/09/19 04:09:06;;;;;;;27.65;19.83;;;;;;;12.55;69.89;100303.44;5054873;28;20025;-61
2023/09/19 04:11:33;;;;;;;25.85;18.73;;;;;;;12.54;70.12;100295.47;5055495;28;20459;-61
2023/09/19 04:13:58;;;;;;;25.85;20.27;;;;;;;12.56;69.70;100296.25;5054852;28;20044;-61
2023/09/19 04:16:25;;;;;;;27.23;19.80;;;;;;;12.55;69.84;100292.69;5054935;28;20033;-62
2023/09/19 04:18:50;;;;;;;30.50;22.10;;;;;;;12.66;69.54;100290.94;5054780;28;20025;-60
2023/09/19 04:21:16;;;;;;;31.52;21.50;;;;;;;12.65;69.24;100284.72;5055509;28;20025;-61
2023/09/19 04:23:42;;;;;;;29.75;21.40;;;;;;;12.65;69.17;100276.66;5054088;28;20359;-61
2023/09/19 04:26:08;;;;;;;31.48;23.55;;;;;;;12.66;69.13;100280.19;5054797;28;20055;-62
2023/09/19 04:28:34;;;;;;;36.10;22.95;;;;;;;12.53;69.69;100270.47;5053788;28;20396;-62
2023/09/19 04:31:00;;;;;;;31.50;22.38;;;;;;;12.55;69.99;100276.56;5054982;28;20127;-63
2023/09/19 04:33:29;;;;;;;36.25;23.75;;;;;;;12.46;69.36;100247.78;5055083;28;20029;-62
2023/09/19 04:35:55;;;;;;;40.42;22.90;;;;;;;12.62;69.69;100266.19;5054357;28;20065;-62
2023/09/19 04:38:21;;;;;;;33.95;22.95;;;;;;;12.64;70.01;100256.16;5054650;28;20067;-62
2023/09/19 04:40:47;;;;;;;30.10;21.30;;;;;;;12.70;69.42;100263.69;5053998;28;20040;-61
2023/09/19 04:43:13;;;;;;;31.38;20.95;;;;;;;12.85;69.00;100263.41;5053423;28;20033;-61
2023/09/19 04:45:42;;;;;;;27.88;20.80;;;;;;;12.85;69.48;100266.94;5053297;28;20482;-61
2023/09/19 04:48:08;;;;;;;34.55;21.05;;;;;;;12.82;68.50;100252.94;5054252;28;20033;-56
2023/09/19 04:50:34;;;;;;;28.38;21.00;;;;;;;12.72;68.67;100228.66;5054166;28;20037;-60
2023/09/19 04:53:00;;;;;;;26.80;19.33;;;;;;;12.97;68.58;100264.22;5054343;28;20048;-61
2023/09/19 04:55:26;;;;;;;29.13;19.02;;;;;;;13.03;68.38;100271.78;5054346;28;20033;-61
2023/09/19 04:57:52;;;;;;;28.20;18.33;;;;;;;13.11;68.22;100279.19;5054220;28;20098;-61
2023/09/19 05:00:23;;;;;;;24.80;17.60;;;;;;;13.15;68.23;100276.13;5054304;28;20406;-62
2023/09/19 05:02:52;;;;;;;30.27;18.00;;;;;;;13.12;67.99;100275.53;5054431;28;20029;-62
2023/09/19 05:05:18;;;;;;;24.67;17.35;;;;;;;13.13;68.05;100270.00;5053452;28;20036;-63
2023/09/19 05:07:46;;;;;;;23.20;17.17;;;;;;;13.15;68.29;100267.19;5053256;28;20029;-63
2023/09/19 05:10:12;;;;;;;21.70;16.75;;;;;;;13.27;67.67;100271.53;5052725;28;20032;-62
2023/09/19 05:12:38;;;;;;;25.55;16.77;;;;;;;13.35;67.32;100268.19;5053910;28;20474;-63
2023/09/19 05:15:06;;;;;;;25.52;16.10;;;;;;;13.43;67.16;100265.75;5053850;28;20104;-62
2023/09/19 05:17:33;;;;;;;24.45;16.20;;;;;;;13.48;66.41;100249.19;5053334;28;20025;-62
2023/09/19 05:20:05;;;;;;;24.20;15.75;;;;;;;13.59;66.39;100259.00;5053728;28;20024;-61
2023/09/19 05:22:32;;;;;;;23.95;16.30;;;;;;;13.69;66.10;100261.75;5053876;28;20476;-63
2023/09/19 05:24:58;;;;;;;23.30;16.00;;;;;;;13.79;65.61;100243.84;5053538;28;20025;-61
2023/09/19 05:27:23;;;;;;;27.35;16.20;;;;;;;14.07;64.93;100257.56;5053689;28;20036;-60
2023/09/19 05:29:50;;;;;;;28.73;15.63;;;;;;;14.30;64.00;100251.97;5054070;28;20455;-60
2023/09/19 05:32:17;;;;;;;27.25;15.77;;;;;;;14.67;63.12;100243.22;5053436;28;20094;-62
2023/09/19 05:34:42;;;;;;;26.65;16.50;;;;;;;15.26;61.15;100237.84;5053635;28;20431;-62
2023/09/19 05:37:08;;;;;;;27.25;15.65;;;;;;;16.38;58.19;100238.03;5053623;28;20064;-61
2023/09/19 05:39:33;;;;;;;24.80;15.48;;;;;;;17.26;55.03;100243.78;5053674;28;20029;-61
2023/09/19 05:42:00;;;;;;;21.55;14.60;;;;;;;17.69;53.95;100242.03;5053309;28;20072;-62
2023/09/19 05:44:26;;;;;;;23.25;14.43;;;;;;;18.32;51.87;100252.69;5053054;28;20458;-62
2023/09/19 05:46:51;;;;;;;23.90;16.00;;;;;;;18.76;50.31;100241.59;5054111;28;20029;-62
2023/09/19 05:49:17;;;;;;;21.67;14.48;;;;;;;19.74;47.99;100251.75;5053464;28;20357;-62
2023/09/19 05:51:43;;;;;;;21.77;14.52;;;;;;;20.94;45.17;100234.41;5053214;28;20037;-62
2023/09/19 05:54:09;;;;;;;21.90;13.30;;;;;;;23.05;40.59;100229.69;5052143;28;20452;-62
2023/09/19 05:56:34;;;;;;;25.80;13.90;;;;;;;25.17;36.00;100226.75;5053495;28;20374;-61
2023/09/19 05:59:00;;;;;;;19.63;12.32;;;;;;;26.65;33.23;100224.47;5053230;28;20090;-61
2023/09/19 06:01:25;;;;;;;19.70;13.18;;;;;;;28.18;31.04;100221.63;5052934;28;20037;-61
2023/09/19 06:03:52;;;;;;;19.25;11.73;;;;;;;29.73;28.18;100224.75;5053089;28;20035;-62
2023/09/19 06:06:18;;;;;;;24.85;12.93;;;;;;;30.64;26.54;100231.63;5053196;28;20044;-63
2023/09/19 06:08:44;;;;;;;18.10;12.20;;;;;;;30.79;26.02;100201.50;5053226;28;20040;-63
2023/09/19 06:11:10;;;;;;;17.92;11.52;;;;;;;31.42;25.54;100232.94;5052633;28;20352;-62
2023/09/19 06:13:39;;;;;;;18.92;11.93;;;;;;;32.48;24.23;100225.50;5052806;28;20049;-62
2023/09/19 06:16:05;;;;;;;25.58;11.65;;;;;;;33.50;22.56;100226.72;5053082;28;20180;-62
2023/09/19 06:18:33;;;;;;;17.80;11.32;;;;;;;34.36;22.06;100222.94;5053234;28;20037;-61
2023/09/19 06:20:59;;;;;;;17.27;11.07;;;;;;;34.99;20.72;100238.66;5052476;28;20170;-62
2023/09/19 06:23:26;;;;;;;16.13;10.75;;;;;;;35.48;20.17;100222.50;5052724;28;20108;-60
2023/09/19 06:25:54;;;;;;;17.75;11.40;;;;;;;36.11;20.21;100229.56;5053107;28;20364;-62
2023/09/19 06:28:24;;;;;;;12.90;10.68;;;;;;;35.86;19.40;100217.38;5053147;28;20029;-62
2023/09/19 06:30:50;;;;;;;19.13;11.57;;;;;;;36.54;18.72;100211.53;5052483;28;20040;-63
2023/09/19 06:33:17;;;;;;;14.93;10.40;;;;;;;37.73;18.16;100214.09;5052529;28;20091;-63
2023/09/19 06:35:44;;;;;;;17.23;11.07;;;;;;;38.04;17.04;100204.53;5052740;28;20358;-64
2023/09/19 06:38:12;;;;;;;15.75;10.43;;;;;;;38.37;17.10;100206.59;5052711;28;20029;-62
2023/09/19 06:40:39;;;;;;;15.07;10.00;;;;;;;38.95;16.49;100201.78;5052335;28;20028;-63
2023/09/19 06:43:05;;;;;;;15.27;10.45;;;;;;;38.81;16.36;100198.94;5052315;28;20114;-64
2023/09/19 06:45:31;;;;;;;13.90;10.35;;;;;;;38.90;16.19;100214.75;5052393;28;20439;-63
2023/09/19 06:47:57;;;;;;;14.20;10.27;;;;;;;37.65;17.29;100208.34;5052597;28;20029;-62
2023/09/19 06:50:23;;;;;;;12.75;10.90;;;;;;;36.04;18.89;100223.47;5052542;28;20470;-63
2023/09/19 06:52:51;;;;;;;16.00;10.93;;;;;;;34.07;21.04;100213.13;5052307;28;20095;-62
2023/09/19 06:55:19;;;;;;;17.58;11.40;;;;;;;32.53;22.80;100210.88;5052324;28;20029;-63
2023/09/19 06:57:45;;;;;;;16.58;11.43;;;;;;;31.10;24.39;100209.47;5052181;28;20029;-63
2023/09/19 07:00:18;;;;;;;15.40;11.27;;;;;;;29.72;26.18;100209.28;5052077;28;20025;-64
2023/09/19 07:02:44;;;;;;;17.23;11.35;;;;;;;28.33;28.41;100218.47;5052343;28;20037;-65
2023/09/19 07:05:10;;;;;;;17.40;12.35;;;;;;;27.05;30.49;100208.75;5052260;28;20037;-62
2023/09/19 07:07:35;;;;;;;17.27;13.50;;;;;;;25.79;32.63;100213.59;5052944;28;20059;-62
2023/09/19 07:10:05;;;;;;;20.58;13.52;;;;;;;24.76;34.34;100207.53;5056146;28;20029;-62
2023/09/19 07:12:32;;;;;;;23.00;13.35;;;;;;;23.98;35.88;100207.88;5056148;28;20125;-66
2023/09/19 07:14:58;;;;;;;16.95;13.57;;;;;;;23.74;36.63;100208.16;5056187;28;20041;-63
2023/09/19 07:17:24;;;;;;;22.05;14.27;;;;;;;23.51;37.19;100198.38;5056695;28;20045;-62
2023/09/19 07:19:50;;;;;;;18.20;14.75;;;;;;;23.41;37.33;100199.75;5056096;28;20028;-63
2023/09/19 07:22:16;;;;;;;21.38;14.60;;;;;;;23.47;37.44;100201.69;5055996;28;20044;-62
2023/09/19 07:24:42;;;;;;;22.05;14.05;;;;;;;23.58;37.38;100203.84;5055997;28;20024;-62
2023/09/19 07:27:08;;;;;;;21.98;14.85;;;;;;;23.11;37.85;100203.50;5056258;28;20104;-63
2023/09/19 07:29:34;;;;;;;18.92;15.00;;;;;;;22.62;38.94;100208.72;5055615;28;20120;-62
2023/09/19 07:32:00;;;;;;;23.33;15.50;;;;;;;22.31;40.20;100208.97;5055859;28;20451;-62
2023/09/19 07:34:25;;;;;;;27.17;15.75;;;;;;;21.83;41.27;100209.41;5056468;28;20051;-62
2023/09/19 07:36:51;;;;;;;21.33;15.88;;;;;;;21.49;41.95;100209.72;5055602;28;20036;-63
2023/09/19 07:39:16;;;;;;;22.42;16.95;;;;;;;21.12;42.74;100175.22;5055542;28;20039;-62
2023/09/19 07:41:42;;;;;;;21.83;15.52;;;;;;;21.17;42.96;100200.00;5055971;28;20028;-63
2023/09/19 07:44:10;;;;;;;25.48;16.90;;;;;;;20.76;43.68;100173.97;5056045;28;20040;-63
2023/09/19 07:46:35;;;;;;;26.35;16.63;;;;;;;20.43;44.88;100187.81;5055250;28;20068;-61
2023/09/19 07:49:01;;;;;;;23.65;18.08;;;;;;;20.36;45.38;100187.69;5055717;28;20107;-61
2023/09/19 07:51:27;;;;;;;29.65;17.52;;;;;;;20.08;46.07;100193.59;5056011;28;20075;-62
2023/09/19 07:53:52;;;;;;;23.95;16.75;;;;;;;19.94;46.59;100189.78;5055780;28;20029;-63
2023/09/19 07:56:20;;;;;;;27.35;18.70;;;;;;;19.90;46.72;100186.50;5055378;28;20032;-62
2023/09/19 07:58:45;;;;;;;26.48;18.33;;;;;;;19.84;47.02;100199.94;5055164;28;20356;-62
2023/09/19 08:01:13;;;;;;;26.33;17.30;;;;;;;19.91;47.18;100193.66;5055302;28;20028;-62
2023/09/19 08:03:41;;;;;;;26.85;17.83;;;;;;;19.92;47.07;100189.94;5055676;28;20102;-62
2023/09/19 08:06:07;;;;;;;24.02;17.60;;;;;;;19.79;47.01;100154.31;5055351;28;20029;-63
2023/09/19 08:08:37;;;;;;;27.35;17.73;;;;;;;20.06;46.82;100188.34;5054940;28;20033;-63
2023/09/19 08:11:12;;;;;;;26.60;18.55;;;;;;;20.02;47.17;100188.88;5055253;28;20131;-62
2023/09/19 08:13:48;;;;;;;25.80;17.23;;;;;;;19.94;47.46;100179.72;5055237;28;20482;-62
2023/09/19 08:16:22;;;;;;;;;;;;;;;20.60;44.71;100177.66;5055345;28;20073;-63
2023/09/19 08:18:48;;;;;;;22.63;17.35;;;;;;;20.26;46.70;100168.03;5054757;28;20366;-62
2023/09/19 08:21:15;;;;;;;26.45;17.45;;;;;;;20.06;47.54;100174.75;5055097;28;20112;-63
2023/09/19 08:23:41;;;;;;;28.25;17.08;;;;;;;19.67;48.30;100155.69;5055319;28;20404;-62
2023/09/19 08:26:08;;;;;;;26.48;18.10;;;;;;;19.38;49.19;100158.00;5054325;28;20040;-62
2023/09/19 08:28:35;;;;;;;23.55;16.98;;;;;;;19.06;50.28;100179.59;5054925;28;20033;-63
2023/09/19 08:31:05;;;;;;;25.42;16.95;;;;;;;18.86;51.04;100170.09;5055176;28;20051;-63
2023/09/19 08:33:35;;;;;;;22.75;16.98;;;;;;;18.75;51.39;100173.97;5055004;28;20071;-63
2023/09/19 08:36:04;;;;;;;27.10;18.70;;;;;;;18.66;52.11;100173.13;5053565;28;20029;-62
2023/09/19 08:38:34;;;;;;;26.50;17.63;;;;;;;18.66;51.92;100165.00;5055130;28;20472;-62
2023/09/19 08:41:04;;;;;;;21.60;18.45;;;;;;;18.57;52.21;100157.88;5054677;28;20448;-62
2023/09/19 08:43:33;;;;;;;27.10;17.70;;;;;;;18.48;52.50;100154.31;5055124;28;20032;-63
2023/09/19 08:46:05;;;;;;;26.20;18.27;;;;;;;18.56;52.62;100154.31;5054452;28;20112;-63
2023/09/19 08:48:32;;;;;;;29.65;17.20;;;;;;;18.48;52.98;100144.28;5054726;28;20041;-61
2023/09/19 08:51:06;;;;;;;29.02;17.38;;;;;;;18.62;52.76;100133.81;5054065;28;20079;-63
2023/09/19 08:53:48;;;;;;;26.70;17.50;;;;;;;18.83;52.05;100140.59;5054602;28;20455;-61
2023/09/19 08:56:17;;;;;;;29.27;18.52;;;;;;;18.78;52.31;100139.22;5054155;28;20033;-62
2023/09/19 08:58:48;;;;;;;28.15;18.25;;;;;;;18.67;52.86;100136.84;5054248;28;20037;-62
2023/09/19 09:01:24;;;;;;;31.25;18.80;;;;;;;18.51;52.82;100111.41;5053981;28;20116;-63
2023/09/19 09:03:52;;;;;;;26.33;18.00;;;;;;;18.71;52.80;100145.50;5053531;28;20108;-63
2023/09/19 09:06:20;;;;;;;25.60;18.55;;;;;;;18.63;52.97;100132.78;5054212;28;20347;-62
2023/09/19 09:08:46;;;;;;;26.45;18.45;;;;;;;18.56;53.46;100129.03;5053716;28;20093;-63
2023/09/19 09:11:13;;;;;;;26.73;17.92;;;;;;;18.67;53.53;100142.28;5054101;28;20025;-63
2023/09/19 09:13:41;;;;;;;25.35;17.60;;;;;;;18.90;52.87;100142.44;5053085;28;20079;-63
2023/09/19 09:16:08;;;;;;;30.25;18.85;;;;;;;19.22;52.05;100150.72;5052739;28;20071;-62
2023/09/19 09:18:34;;;;;;;25.92;17.23;;;;;;;19.46;51.77;100149.84;5054057;28;20099;-64
2023/09/19 09:20:59;;;;;;;26.38;17.80;;;;;;;19.65;50.89;100145.84;5054137;28;20063;-62
2023/09/19 09:23:28;;;;;;;24.27;17.38;;;;;;;19.74;50.75;100132.22;5053651;28;20037;-63
2023/09/19 09:25:56;;;;;;;27.83;17.25;;;;;;;19.91;50.46;100141.22;5053590;28;20025;-63
2023/09/19 09:28:25;;;;;;;26.02;17.33;;;;;;;20.04;49.87;100129.75;5053748;28;20142;-62
2023/09/19 09:30:51;;;;;;;20.73;17.02;;;;;;;20.20;49.86;100132.38;5053321;28;20029;-62
2023/09/19 09:33:17;;;;;;;26.00;18.27;;;;;;;20.24;49.34;100116.56;5053506;28;20031;-62
2023/09/19 09:35:51;;;;;;;28.35;17.83;;;;;;;20.26;49.46;100129.97;5053450;28;20106;-62
2023/09/19 09:38:21;;;;;;;30.65;18.58;;;;;;;19.95;50.12;100115.38;5053995;28;20028;-63
2023/09/19 09:40:58;;;;;;;23.67;17.48;;;;;;;19.87;50.71;100140.69;5053336;28;20029;-61
2023/09/19 09:43:42;;;;;;;30.20;17.88;;;;;;;19.91;50.70;100138.50;5053306;28;20179;-63
2023/09/19 09:49:39;;;;;;;26.35;18.08;;;;;;;20.18;50.17;100128.97;5053645;28;20025;-62
2023/09/19 09:55:06;;;;;;;27.00;18.00;;;;;;;20.72;49.09;100120.94;5030111;28;20040;-61
2023/09/19 09:57:33;;;;;;;30.00;17.85;;;;;;;20.71;49.00;100122.81;5053966;28;20044;-62
2023/09/19 10:02:40;;;;;;;23.20;17.65;;;;;;;20.62;49.23;100107.59;5053213;28;20535;-60
2023/09/19 10:07:53;;;;;;;26.33;17.85;;;;;;;20.73;49.36;100109.88;5052959;28;20433;-62
2023/09/19 10:10:45;;;;;;;26.00;18.58;;;;;;;21.05;48.83;100101.59;5052445;28;20029;-63
2023/09/19 10:13:18;;;;;;;30.65;20.40;;;;;;;21.12;48.13;100080.78;5051765;28;20096;-62
2023/09/19 10:15:51;;;;;;;23.70;17.88;;;;;;;21.11;48.55;100091.84;5052922;28;20125;-63
2023/09/19 10:18:29;;;;;;;28.13;19.95;;;;;;;21.06;49.00;100093.28;5052975;28;20142;-61
2023/09/19 10:20:56;;;;;;;30.67;19.27;;;;;;;20.90;48.75;100097.00;5053057;28;20056;-61
2023/09/19 10:23:27;;;;;;;22.52;17.55;;;;;;;20.83;49.30;100095.19;5052493;28;20021;-64
2023/09/19 10:25:52;;;;;;;23.17;16.75;;;;;;;20.74;49.43;100088.97;5052895;28;20029;-65
2023/09/19 10:28:22;;;;;;;29.35;17.83;;;;;;;20.67;49.64;100083.41;5052770;28;20098;-63
2023/09/19 10:30:50;;;;;;;26.35;17.30;;;;;;;20.73;49.86;100076.38;5052503;28;20040;-63
2023/09/19 10:33:18;;;;;;;24.48;17.40;;;;;;;20.87;49.65;100082.91;5052176;28;20037;-63
2023/09/19 10:35:45;;;;;;;23.05;16.63;;;;;;;21.00;49.22;100077.69;5052176;28;20029;-64
2023/09/19 10:38:14;;;;;;;22.92;16.90;;;;;;;21.14;48.91;100083.31;5052376;28;20044;-62
2023/09/19 10:40:46;;;;;;;22.55;17.40;;;;;;;21.00;49.01;100068.66;5051888;28;20029;-62
2023/09/19 10:43:20;;;;;;;22.40;17.83;;;;;;;21.10;49.21;100073.84;5051356;28;20489;-63
2023/09/19 10:45:49;;;;;;;33.97;18.33;;;;;;;20.95;49.46;100061.06;5052031;28;20467;-63
2023/09/19 10:48:20;;;;;;;25.08;16.95;;;;;;;20.91;49.77;100062.47;5052158;28;20474;-63
2023/09/19 10:50:50;;;;;;;24.63;17.35;;;;;;;20.83;49.86;100066.09;5052268;28;20033;-60
2023/09/19 10:53:17;;;;;;;30.00;18.33;;;;;;;20.70;50.16;100060.44;5052475;28;20033;-64
2023/09/19 10:56:17;;;;;;;23.63;18.05;;;;;;;20.92;49.79;100066.88;5052262;28;20029;-61
2023/09/19 10:58:44;;;;;;;24.73;16.80;;;;;;;20.72;50.27;100053.75;5052190;28;20404;-62
2023/09/19 11:01:15;;;;;;;24.33;18.00;;;;;;;20.79;50.31;100060.22;5052356;28;20094;-63
2023/09/19 11:03:43;;;;;;;28.40;18.40;;;;;;;20.91;50.02;100057.00;5052349;28;20072;-63
2023/09/19 11:06:22;;;;;;;28.17;18.05;;;;;;;20.91;49.44;100027.94;5052231;28;20465;-63
2023/09/19 11:09:16;;;;;;;25.50;18.85;;;;;;;21.04;49.44;100042.75;5052289;28;20048;-63
2023/09/19 11:11:55;;;;;;;24.98;18.08;;;;;;;21.02;50.13;100055.72;5052107;28;20101;-58
2023/09/19 11:14:23;;;;;;;24.73;17.58;;;;;;;21.05;49.79;100048.03;5052080;28;20087;-62
2023/09/19 11:17:21;;;;;;;22.65;16.10;;;;;;;21.21;49.94;100051.56;5052393;28;20468;-62
2023/09/19 11:22:53;;;;;;;25.50;17.23;;;;;;;21.26;49.82;100051.00;5052535;28;20522;-63
2023/09/19 11:28:05;;;;;;;21.35;16.77;;;;;;;21.24;50.00;100045.78;5052106;28;20041;-63
2023/09/19 11:30:32;;;;;;;30.85;17.88;;;;;;;21.16;49.64;100032.25;5051596;28;20466;-63
2023/09/19 11:33:46;;;;;;;22.88;16.42;;;;;;;21.38;50.00;100049.53;5052409;28;20025;-63